Time;durP1;ratioP1;P1;durP2;ratioP2;P2;SDS_P1;SDS_P2;PMS_P1;PMS_P2;Temp;Humidity;BMP_temperature;BMP_pressure;BME280_temperature;BME280_humidity;BME280_pressure;Samples;Min_cycle;Max_cycle;Signal;HPM_P1;HPM_P2
2021/06/07 00:00:15;;;;;;;;;;;14.20;99.90;;;;;;5135031;27;19945;-75
2021/06/07 00:02:41;;;;;;;;;;;14.20;99.90;;;;;;5134801;27;19907;-76
2021/06/07 00:05:07;;;;;;;;;;;14.20;99.90;;;;;;5134737;27;19980;-76
2021/06/07 00:07:36;;;;;;;;;;;14.20;99.90;;;;;;5134605;27;20103;-74
2021/06/07 00:10:01;;;;;;;;;;;14.10;99.90;;;;;;5134325;27;19982;-74
2021/06/07 00:12:27;;;;;;;;;;;14.10;99.90;;;;;;5134450;27;19954;-74
2021/06/07 00:14:52;;;;;;;;;;;14.00;99.90;;;;;;5134694;27;20314;-74
2021/06/07 00:17:18;;;;;;;;;;;14.00;99.90;;;;;;5135018;27;19909;-74
2021/06/07 00:19:43;;;;;;;;;;;14.00;99.90;;;;;;5134008;27;20327;-74
2021/06/07 00:22:09;;;;;;;;;;;14.00;99.90;;;;;;5134616;27;19985;-74
2021/06/07 00:24:35;;;;;;;;;;;14.00;99.90;;;;;;5134369;27;20333;-73
2021/06/07 00:27:00;;;;;;;;;;;13.90;99.90;;;;;;5133887;27;19904;-76
2021/06/07 00:29:26;;;;;;;;;;;13.90;99.90;;;;;;5134445;27;19915;-75
2021/06/07 00:31:52;;;;;;;;;;;13.90;99.90;;;;;;5134695;27;19934;-75
2021/06/07 00:34:17;;;;;;;;;;;13.90;99.90;;;;;;5133804;27;20407;-75
2021/06/07 00:36:43;;;;;;;;;;;13.90;99.90;;;;;;5134694;27;19904;-75
2021/06/07 00:39:10;;;;;;;;;;;13.90;99.90;;;;;;5115673;27;20322;-75
2021/06/07 00:41:36;;;;;;;;;;;13.80;99.90;;;;;;5133497;27;19907;-75
2021/06/07 00:44:04;;;;;;;;;;;13.80;99.90;;;;;;5134473;27;19911;-74
2021/06/07 00:46:29;;;;;;;;;;;13.70;99.90;;;;;;5134365;27;19956;-74
2021/06/07 00:48:55;;;;;;;;;;;13.60;99.90;;;;;;5133554;27;20270;-75
2021/06/07 00:51:21;;;;;;;;;;;13.70;99.90;;;;;;5134277;28;19903;-74
2021/06/07 00:53:47;;;;;;;;;;;13.60;99.90;;;;;;5133954;28;19903;-74
2021/06/07 00:56:12;;;;;;;;;;;13.60;99.90;;;;;;5133299;28;19903;-74
2021/06/07 00:58:39;;;;;;;;;;;13.50;99.90;;;;;;5134035;28;19911;-74
2021/06/07 01:01:06;;;;;;;;;;;13.50;99.90;;;;;;5133498;28;19904;-74
2021/06/07 01:03:41;;;;;;;;;;;13.50;99.90;;;;;;5134090;28;20366;-74
2021/06/07 01:06:07;;;;;;;;;;;13.40;99.90;;;;;;5134137;28;19904;-74
2021/06/07 01:08:33;;;;;;;;;;;13.40;99.90;;;;;;5133288;28;19926;-74
2021/06/07 01:10:59;;;;;;;;;;;13.40;99.90;;;;;;5134278;28;19907;-74
2021/06/07 01:13:25;;;;;;;;;;;13.50;99.90;;;;;;5134159;28;19903;-75
2021/06/07 01:15:51;;;;;;;;;;;13.50;99.90;;;;;;5133367;28;19986;-75
2021/06/07 01:18:17;;;;;;;;;;;13.50;99.90;;;;;;5134263;28;19907;-74
2021/06/07 01:20:43;;;;;;;;;;;13.50;99.90;;;;;;5136383;27;19910;-75
2021/06/07 01:23:09;;;;;;;;;;;13.50;99.90;;;;;;5137682;27;19910;-75
2021/06/07 01:25:36;;;;;;;;;;;13.40;99.90;;;;;;5138295;27;19904;-76
2021/06/07 01:28:02;;;;;;;;;;;13.50;99.90;;;;;;5138744;27;19916;-75
2021/06/07 01:30:29;;;;;;;;;;;13.40;99.90;;;;;;5138666;27;20269;-75
2021/06/07 01:32:58;;;;;;;;;;;13.40;99.90;;;;;;5138534;27;19907;-75
2021/06/07 01:35:25;;;;;;;;;;;14.10;99.90;;;;;;5138799;27;19968;-75
2021/06/07 01:37:52;;;;;;;;;;;13.40;99.90;;;;;;5137911;27;19994;-75
2021/06/07 01:40:18;;;;;;;;;;;13.30;99.90;;;;;;5143647;27;19903;-75
2021/06/07 01:42:44;;;;;;;;;;;13.30;99.90;;;;;;5138493;27;19903;-74
2021/06/07 01:45:10;;;;;;;;;;;13.40;99.90;;;;;;5143522;27;20538;-74
2021/06/07 01:47:36;;;;;;;;;;;13.30;99.90;;;;;;5137425;27;19925;-75
2021/06/07 01:50:05;;;;;;;;;;;13.30;99.90;;;;;;5137807;27;19908;-74
2021/06/07 01:52:31;;;;;;;;;;;13.30;99.90;;;;;;5136827;27;19903;-74
2021/06/07 01:54:56;;;;;;;;;;;13.20;99.90;;;;;;5137818;27;19934;-74
2021/06/07 01:57:22;;;;;;;;;;;13.30;99.90;;;;;;5136675;27;19946;-74
2021/06/07 01:59:47;;;;;;;;;;;13.20;99.90;;;;;;5137349;27;19980;-74
2021/06/07 02:02:12;;;;;;;;;;;13.20;99.90;;;;;;5137610;27;20234;-74
2021/06/07 02:04:38;;;;;;;;;;;13.20;99.90;;;;;;5136517;27;19903;-73
2021/06/07 02:07:03;;;;;;;;;;;13.10;99.90;;;;;;5137346;27;19903;-74
2021/06/07 02:09:29;;;;;;;;;;;13.10;99.90;;;;;;5137270;27;20011;-74
2021/06/07 02:11:54;;;;;;;;;;;13.10;99.90;;;;;;5136266;27;19907;-74
2021/06/07 02:14:20;;;;;;;;;;;13.00;99.90;;;;;;5136968;27;20371;-74
2021/06/07 02:16:45;;;;;;;;;;;13.00;99.90;;;;;;5137121;27;19993;-75
2021/06/07 02:19:11;;;;;;;;;;;13.00;99.90;;;;;;5136121;27;20299;-74
2021/06/07 02:21:37;;;;;;;;;;;12.90;99.90;;;;;;5137135;27;19904;-75
2021/06/07 02:24:06;;;;;;;;;;;12.90;99.90;;;;;;5137408;27;19917;-74
2021/06/07 02:26:32;;;;;;;;;;;12.90;99.90;;;;;;5135930;27;19978;-75
2021/06/07 02:29:16;;;;;;;;;;;12.90;99.90;;;;;;5136945;27;19961;-75
2021/06/07 02:31:42;;;;;;;;;;;12.90;99.90;;;;;;5135995;27;19903;-75
2021/06/07 02:34:09;;;;;;;;;;;12.90;99.90;;;;;;5136644;27;19903;-75
2021/06/07 02:36:36;;;;;;;;;;;12.80;99.90;;;;;;5137111;27;19910;-75
2021/06/07 02:39:04;;;;;;;;;;;12.90;99.90;;;;;;5137057;27;19911;-75
2021/06/07 02:41:30;;;;;;;;;;;12.80;99.90;;;;;;5136108;27;19907;-75
2021/06/07 02:43:56;;;;;;;;;;;12.80;99.90;;;;;;5136390;27;20385;-74
2021/06/07 02:46:22;;;;;;;;;;;12.80;99.90;;;;;;5136357;27;19917;-73
2021/06/07 02:48:48;;;;;;;;;;;12.80;99.90;;;;;;5135874;27;19994;-74
2021/06/07 02:51:14;;;;;;;;;;;12.80;99.90;;;;;;5136418;27;20415;-74
2021/06/07 02:53:39;;;;;;;;;;;12.80;99.90;;;;;;5135395;27;19904;-74
2021/06/07 02:56:05;;;;;;;;;;;12.80;99.90;;;;;;5136567;27;19956;-74
2021/06/07 02:58:31;;;;;;;;;;;12.80;99.90;;;;;;5135855;27;20307;-75
2021/06/07 03:00:58;;;;;;;;;;;12.80;99.90;;;;;;5135889;27;19903;-74
2021/06/07 03:03:24;;;;;;;;;;;12.70;99.90;;;;;;5136127;27;19914;-74
2021/06/07 03:05:51;;;;;;;;;;;12.70;99.90;;;;;;5136199;27;19903;-75
2021/06/07 03:08:19;;;;;;;;;;;12.70;99.90;;;;;;5135063;27;19968;-74
2021/06/07 03:10:46;;;;;;;;;;;12.60;99.90;;;;;;5135961;27;19907;-74
2021/06/07 03:13:11;;;;;;;;;;;12.60;99.90;;;;;;5135862;27;19914;-75
2021/06/07 03:15:37;;;;;;;;;;;12.50;99.90;;;;;;5134815;27;19907;-75
2021/06/07 03:18:03;;;;;;;;;;;12.50;99.90;;;;;;5135669;27;19903;-75
2021/06/07 03:20:30;;;;;;;;;;;12.40;99.90;;;;;;5135879;27;19927;-75
2021/06/07 03:22:57;;;;;;;;;;;12.40;99.90;;;;;;5135506;27;19903;-76
2021/06/07 03:25:22;;;;;;;;;;;12.40;99.90;;;;;;5137996;27;19910;-75
2021/06/07 03:27:48;;;;;;;;;;;12.40;99.90;;;;;;5135492;27;19911;-74
2021/06/07 03:30:14;;;;;;;;;;;12.40;99.90;;;;;;5135216;27;20349;-74
2021/06/07 03:32:40;;;;;;;;;;;12.40;99.90;;;;;;5135891;27;19910;-75
2021/06/07 03:35:09;;;;;;;;;;;12.40;99.90;;;;;;5137033;27;19907;-74
2021/06/07 03:37:35;;;;;;;;;;;12.40;99.90;;;;;;5134896;27;19903;-75
2021/06/07 03:40:02;;;;;;;;;;;12.40;99.90;;;;;;5135473;27;19910;-74
2021/06/07 03:42:28;;;;;;;;;;;12.40;99.90;;;;;;5135719;27;19955;-74
2021/06/07 03:44:53;;;;;;;;;;;12.50;99.90;;;;;;5136096;27;19903;-75
2021/06/07 03:47:19;;;;;;;;;;;12.50;99.90;;;;;;5137099;27;19916;-73
2021/06/07 03:49:44;;;;;;;;;;;12.50;99.90;;;;;;5137905;27;20063;-74
2021/06/07 03:52:10;;;;;;;;;;;12.50;99.90;;;;;;5138903;27;19908;-73
2021/06/07 03:54:36;;;;;;;;;;;12.60;99.90;;;;;;5135324;27;19982;-74
2021/06/07 03:57:04;;;;;;;;;;;12.50;99.90;;;;;;5134619;27;19904;-75
2021/06/07 03:59:29;;;;;;;;;;;12.60;99.90;;;;;;5135275;27;19904;-74
2021/06/07 04:01:56;;;;;;;;;;;12.60;99.90;;;;;;5135073;27;19904;-75
2021/06/07 04:04:22;;;;;;;;;;;12.60;99.90;;;;;;5134262;27;19910;-75
2021/06/07 04:06:47;;;;;;;;;;;12.70;99.90;;;;;;5134926;27;20306;-75
2021/06/07 04:09:13;;;;;;;;;;;12.70;99.90;;;;;;5135041;27;19911;-74
2021/06/07 04:11:38;;;;;;;;;;;12.70;99.90;;;;;;5134343;27;19990;-74
2021/06/07 04:14:04;;;;;;;;;;;12.80;99.90;;;;;;5135123;27;19949;-74
2021/06/07 04:16:29;;;;;;;;;;;12.80;99.90;;;;;;5134616;27;19970;-74
2021/06/07 04:18:55;;;;;;;;;;;12.90;99.90;;;;;;5133946;27;19903;-75
2021/06/07 04:21:20;;;;;;;;;;;12.90;99.90;;;;;;5134656;27;19907;-75
2021/06/07 04:23:46;;;;;;;;;;;13.00;99.90;;;;;;5134934;27;19908;-75
2021/06/07 04:26:11;;;;;;;;;;;13.00;99.90;;;;;;5133728;27;19903;-75
2021/06/07 04:28:39;;;;;;;;;;;13.00;99.90;;;;;;5134432;27;19918;-74
2021/06/07 04:31:05;;;;;;;;;;;13.10;99.90;;;;;;5134756;27;19935;-75
2021/06/07 04:33:30;;;;;;;;;;;13.10;99.90;;;;;;5134063;27;19948;-74
2021/06/07 04:35:55;;;;;;;;;;;13.10;99.90;;;;;;5134744;27;20004;-75
2021/06/07 04:38:21;;;;;;;;;;;13.10;99.90;;;;;;5134722;27;19903;-74
2021/06/07 04:40:46;;;;;;;;;;;13.20;99.90;;;;;;5133602;27;20319;-75
2021/06/07 04:43:14;;;;;;;;;;;13.20;99.90;;;;;;5134725;27;19903;-75
2021/06/07 04:45:41;;;;;;;;;;;13.30;99.90;;;;;;5134282;27;20391;-75
2021/06/07 04:48:06;;;;;;;;;;;13.30;99.90;;;;;;5133761;27;19919;-75
2021/06/07 04:50:32;;;;;;;;;;;13.40;99.90;;;;;;5134472;27;19903;-75
2021/06/07 04:53:01;;;;;;;;;;;13.40;99.90;;;;;;5133996;28;19903;-74
2021/06/07 04:55:46;;;;;;;;;;;13.50;99.90;;;;;;5138576;27;19911;-74
2021/06/07 04:58:14;;;;;;;;;;;13.60;99.90;;;;;;5141372;27;19903;-74
2021/06/07 05:00:40;;;;;;;;;;;13.60;99.90;;;;;;5140648;27;19922;-74
2021/06/07 05:03:06;;;;;;;;;;;13.70;99.90;;;;;;5141855;27;20338;-75
2021/06/07 05:05:32;;;;;;;;;;;13.70;99.90;;;;;;5142072;27;19903;-75
2021/06/07 05:07:57;;;;;;;;;;;13.80;99.90;;;;;;5140446;27;19907;-75
2021/06/07 05:10:23;;;;;;;;;;;13.80;99.90;;;;;;5140835;27;19918;-74
2021/06/07 05:12:49;;;;;;;;;;;13.90;99.90;;;;;;5142638;27;19927;-75
2021/06/07 05:15:15;;;;;;;;;;;14.00;99.90;;;;;;5143631;27;19910;-75
2021/06/07 05:17:41;;;;;;;;;;;14.00;99.90;;;;;;5141247;27;20388;-74
2021/06/07 05:20:08;;;;;;;;;;;14.10;99.90;;;;;;5141003;27;19957;-74
2021/06/07 05:22:33;;;;;;;;;;;14.10;99.90;;;;;;5140012;27;19903;-74
2021/06/07 05:24:59;;;;;;;;;;;14.20;99.90;;;;;;5141046;27;19907;-74
2021/06/07 05:27:24;;;;;;;;;;;14.30;99.90;;;;;;5141137;27;19982;-74
2021/06/07 05:29:50;;;;;;;;;;;14.30;99.90;;;;;;5140637;27;19912;-76
2021/06/07 05:32:15;;;;;;;;;;;14.40;99.90;;;;;;5141034;27;19907;-74
2021/06/07 05:34:41;;;;;;;;;;;14.40;99.90;;;;;;5140919;27;19954;-75
2021/06/07 05:37:06;;;;;;;;;;;14.50;99.90;;;;;;5140034;27;19986;-75
2021/06/07 05:39:32;;;;;;;;;;;14.50;99.90;;;;;;5143012;27;19915;-75
2021/06/07 05:41:57;;;;;;;;;;;14.60;99.90;;;;;;5142138;27;19910;-74
2021/06/07 05:44:23;;;;;;;;;;;14.60;99.90;;;;;;5139940;27;19983;-77
2021/06/07 05:46:50;;;;;;;;;;;14.70;99.90;;;;;;5140709;27;20274;-76
2021/06/07 05:49:16;;;;;;;;;;;14.70;99.90;;;;;;5140352;27;19915;-75
2021/06/07 05:51:41;;;;;;;;;;;14.70;99.90;;;;;;5122004;27;20294;-75
2021/06/07 05:54:07;;;;;;;;;;;14.80;99.90;;;;;;5142160;27;19904;-74
2021/06/07 05:56:32;;;;;;;;;;;14.80;99.90;;;;;;5140876;27;19904;-75
2021/06/07 05:58:58;;;;;;;;;;;14.70;99.90;;;;;;5141277;27;20361;-74
2021/06/07 06:01:24;;;;;;;;;;;14.90;99.90;;;;;;5140677;27;20371;-75
2021/06/07 06:03:51;;;;;;;;;;;14.90;99.90;;;;;;5139511;27;19903;-74
2021/06/07 06:06:17;;;;;;;;;;;14.90;99.90;;;;;;5138728;27;19903;-75
2021/06/07 06:08:42;;;;;;;;;;;15.00;99.90;;;;;;5136930;27;19911;-74
2021/06/07 06:11:08;;;;;;;;;;;15.10;99.90;;;;;;5136150;27;19903;-75
2021/06/07 06:13:33;;;;;;;;;;;15.10;99.90;;;;;;5136858;27;19904;-74
2021/06/07 06:15:59;;;;;;;;;;;15.10;99.90;;;;;;5136929;27;20033;-74
2021/06/07 06:18:24;;;;;;;;;;;15.30;99.90;;;;;;5136153;27;19903;-74
2021/06/07 06:20:50;;;;;;;;;;;15.30;99.90;;;;;;5136558;27;19914;-74
2021/06/07 06:23:15;;;;;;;;;;;15.30;99.90;;;;;;5136674;27;19907;-74
2021/06/07 06:25:41;;;;;;;;;;;15.40;99.90;;;;;;5136097;27;20320;-74
2021/06/07 06:28:06;;;;;;;;;;;15.50;99.90;;;;;;5136710;27;19934;-74
2021/06/07 06:30:31;;;;;;;;;;;15.50;99.90;;;;;;5136730;27;19903;-74
2021/06/07 06:32:58;;;;;;;;;;;15.60;99.90;;;;;;5135848;27;20381;-75
2021/06/07 06:35:24;;;;;;;;;;;15.70;99.90;;;;;;5136646;27;19907;-74
2021/06/07 06:37:50;;;;;;;;;;;15.70;99.90;;;;;;5136624;27;19904;-74
2021/06/07 06:40:22;;;;;;;;;;;15.70;99.90;;;;;;5135605;27;20259;-74
2021/06/07 06:42:47;;;;;;;;;;;15.80;99.90;;;;;;5136382;27;19914;-75
2021/06/07 06:45:13;;;;;;;;;;;15.90;99.90;;;;;;5136547;27;19903;-75
2021/06/07 06:47:39;;;;;;;;;;;15.90;99.90;;;;;;5135140;27;19915;-76
2021/06/07 06:50:06;;;;;;;;;;;16.00;99.90;;;;;;5136269;27;19914;-75
2021/06/07 06:52:34;;;;;;;;;;;16.00;99.90;;;;;;5136035;27;20257;-75
2021/06/07 06:55:00;;;;;;;;;;;16.10;99.90;;;;;;5135391;27;19948;-74
2021/06/07 06:57:26;;;;;;;;;;;16.20;99.90;;;;;;5136324;27;19911;-74
2021/06/07 06:59:51;;;;;;;;;;;16.20;99.90;;;;;;5135322;27;20339;-75
2021/06/07 07:02:17;;;;;;;;;;;16.30;99.90;;;;;;5135816;27;19903;-74
2021/06/07 07:04:42;;;;;;;;;;;16.30;99.90;;;;;;5136346;27;20400;-75
2021/06/07 07:07:08;;;;;;;;;;;16.30;99.90;;;;;;5135275;27;19917;-74
2021/06/07 07:09:33;;;;;;;;;;;16.40;99.90;;;;;;5135721;27;19911;-74
2021/06/07 07:11:59;;;;;;;;;;;16.50;99.90;;;;;;5135927;27;19910;-75
2021/06/07 07:14:24;;;;;;;;;;;16.50;99.90;;;;;;5134893;27;19904;-74
2021/06/07 07:16:52;;;;;;;;;;;16.50;99.90;;;;;;5135291;27;19903;-75
2021/06/07 07:19:20;;;;;;;;;;;16.70;99.90;;;;;;5135063;27;19904;-75
2021/06/07 07:21:45;;;;;;;;;;;16.70;99.90;;;;;;5134686;27;19911;-75
2021/06/07 07:24:11;;;;;;;;;;;16.70;99.90;;;;;;5135709;27;19919;-75
2021/06/07 07:26:36;;;;;;;;;;;16.80;99.90;;;;;;5135834;27;20363;-74
2021/06/07 07:29:02;;;;;;;;;;;16.80;99.90;;;;;;5134801;27;19946;-75
2021/06/07 07:31:27;;;;;;;;;;;16.90;99.90;;;;;;5135709;27;20399;-75
2021/06/07 07:33:53;;;;;;;;;;;17.00;99.90;;;;;;5135400;27;19904;-75
2021/06/07 07:36:18;;;;;;;;;;;17.10;99.90;;;;;;5134456;27;20274;-75
2021/06/07 07:38:44;;;;;;;;;;;17.10;99.90;;;;;;5135019;27;19903;-74
2021/06/07 07:41:10;;;;;;;;;;;17.10;99.90;;;;;;5135208;27;19913;-74
2021/06/07 07:43:36;;;;;;;;;;;17.20;99.90;;;;;;5134380;27;19998;-75
2021/06/07 07:46:02;;;;;;;;;;;17.30;99.90;;;;;;5135321;27;19942;-76
2021/06/07 07:48:27;;;;;;;;;;;17.40;99.90;;;;;;5140366;27;19920;-76
2021/06/07 07:50:53;;;;;;;;;;;17.40;99.90;;;;;;5135648;27;19990;-76
2021/06/07 07:53:19;;;;;;;;;;;17.40;99.90;;;;;;5134873;27;19903;-76
2021/06/07 07:55:45;;;;;;;;;;;17.50;99.90;;;;;;5135154;27;19910;-76
2021/06/07 07:58:11;;;;;;;;;;;17.50;99.90;;;;;;5135296;27;19908;-76
2021/06/07 08:00:38;;;;;;;;;;;17.50;99.90;;;;;;5136689;27;19908;-76
2021/06/07 08:03:03;;;;;;;;;;;17.70;99.90;;;;;;5136322;27;19904;-76
2021/06/07 08:05:29;;;;;;;;;;;17.80;99.90;;;;;;5138189;27;19907;-75
2021/06/07 08:07:55;;;;;;;;;;;17.80;99.90;;;;;;5134681;27;19983;-75
2021/06/07 08:10:21;;;;;;;;;;;17.90;99.90;;;;;;5134092;27;19907;-76
2021/06/07 08:12:46;;;;;;;;;;;17.90;99.90;;;;;;5134561;27;19903;-76
2021/06/07 08:15:12;;;;;;;;;;;18.00;99.90;;;;;;5134356;27;19911;-75
2021/06/07 08:17:38;;;;;;;;;;;18.00;99.90;;;;;;5132626;27;19910;-74
2021/06/07 08:20:08;;;;;;;;;;;18.10;99.90;;;;;;5134217;27;19903;-74
2021/06/07 08:22:33;;;;;;;;;;;18.20;99.90;;;;;;5134579;27;20212;-76
2021/06/07 08:25:00;;;;;;;;;;;18.20;99.90;;;;;;5134107;27;19903;-76
2021/06/07 08:27:25;;;;;;;;;;;18.20;99.90;;;;;;5134231;27;20002;-76
2021/06/07 08:29:51;;;;;;;;;;;18.20;99.90;;;;;;5133242;27;20034;-75
2021/06/07 08:32:17;;;;;;;;;;;18.30;99.90;;;;;;5133506;27;19903;-75
2021/06/07 08:34:45;;;;;;;;;;;18.40;99.90;;;;;;5134502;27;19907;-76
2021/06/07 08:37:10;;;;;;;;;;;18.40;99.90;;;;;;5134493;27;19961;-76
2021/06/07 08:39:36;;;;;;;;;;;18.60;99.90;;;;;;5133384;27;20307;-75
2021/06/07 08:42:02;;;;;;;;;;;18.50;99.90;;;;;;5134218;27;19948;-75
2021/06/07 08:44:28;;;;;;;;;;;18.50;99.90;;;;;;5133976;27;19907;-75
2021/06/07 08:46:54;;;;;;;;;;;18.60;99.90;;;;;;5133080;27;19922;-76
2021/06/07 08:49:19;;;;;;;;;;;18.70;99.90;;;;;;5133895;27;20331;-76
2021/06/07 08:51:45;;;;;;;;;;;18.70;99.90;;;;;;5133850;27;19915;-74
2021/06/07 08:54:10;;;;;;;;;;;18.80;99.90;;;;;;5133252;28;19903;-75
2021/06/07 08:56:36;;;;;;;;;;;18.90;99.90;;;;;;5133926;28;19914;-76
2021/06/07 08:59:01;;;;;;;;;;;19.00;99.90;;;;;;5133527;28;19903;-75
2021/06/07 09:01:27;;;;;;;;;;;19.00;99.90;;;;;;5133080;28;19994;-75
2021/06/07 09:03:52;;;;;;;;;;;19.10;99.90;;;;;;5133809;28;19904;-75
2021/06/07 09:06:24;;;;;;;;;;;19.10;99.90;;;;;;5132897;28;19903;-75
2021/06/07 09:09:00;;;;;;;;;;;19.20;99.90;;;;;;5133685;28;19911;-75
2021/06/07 09:11:26;;;;;;;;;;;19.20;99.90;;;;;;5133585;28;19908;-75
2021/06/07 09:13:51;;;;;;;;;;;19.20;99.90;;;;;;5132778;28;19956;-76
2021/06/07 09:16:17;;;;;;;;;;;19.20;99.90;;;;;;5133698;28;19903;-74
2021/06/07 09:18:44;;;;;;;;;;;19.20;99.90;;;;;;5133609;28;20236;-74
2021/06/07 09:21:18;;;;;;;;;;;19.30;99.90;;;;;;5132744;28;19907;-74
2021/06/07 09:23:51;;;;;;;;;;;19.40;99.90;;;;;;5133555;28;20294;-74
2021/06/07 09:26:38;;;;;;;;;;;19.50;99.90;;;;;;5133618;28;19949;-75
2021/06/07 09:29:23;;;;;;;;;;;19.50;99.90;;;;;;5133321;28;19912;-75
2021/06/07 09:31:56;;;;;;;;;;;19.50;99.90;;;;;;5115370;28;19948;-75
2021/06/07 09:34:27;;;;;;;;;;;19.50;99.90;;;;;;5133434;28;20002;-75
2021/06/07 09:36:52;;;;;;;;;;;19.50;99.90;;;;;;5133883;28;19945;-75
2021/06/07 09:39:20;;;;;;;;;;;19.60;99.90;;;;;;5133496;28;19903;-75
2021/06/07 09:41:45;;;;;;;;;;;19.70;99.10;;;;;;5135611;27;20392;-74
2021/06/07 09:44:18;;;;;;;;;;;19.70;99.80;;;;;;5137260;27;19903;-75
2021/06/07 09:46:43;;;;;;;;;;;19.70;99.30;;;;;;5137351;27;19903;-75
2021/06/07 09:49:10;;;;;;;;;;;19.80;99.30;;;;;;5136341;27;19918;-74
2021/06/07 09:51:40;;;;;;;;;;;19.90;99.30;;;;;;5137177;27;19922;-75
2021/06/07 09:54:06;;;;;;;;;;;20.00;98.70;;;;;;5138108;27;19903;-75
2021/06/07 09:56:31;;;;;;;;;;;20.00;98.10;;;;;;5142340;27;20351;-75
2021/06/07 09:58:57;;;;;;;;;;;20.10;97.80;;;;;;5137354;27;19908;-75
2021/06/07 10:01:27;;;;;;;;;;;20.20;97.70;;;;;;5136738;27;20323;-74
2021/06/07 10:03:54;;;;;;;;;;;20.10;97.10;;;;;;5136561;27;19928;-76
2021/06/07 10:06:36;;;;;;;;;;;20.20;97.40;;;;;;5137225;27;20412;-74
2021/06/07 10:09:01;;;;;;;;;;;20.20;97.30;;;;;;5137321;27;19950;-75
2021/06/07 10:11:27;;;;;;;;;;;20.30;96.90;;;;;;5140888;27;19910;-75
2021/06/07 10:14:09;;;;;;;;;;;20.30;96.30;;;;;;5137854;27;19903;-75
2021/06/07 10:16:36;;;;;;;;;;;20.40;96.10;;;;;;5136929;27;19968;-75
2021/06/07 10:19:05;;;;;;;;;;;20.50;95.40;;;;;;5118021;27;20260;-74
2021/06/07 10:21:30;;;;;;;;;;;20.50;95.20;;;;;;5136470;27;20358;-74
2021/06/07 10:23:57;;;;;;;;;;;20.50;95.30;;;;;;5136030;27;19911;-75
2021/06/07 10:26:22;;;;;;;;;;;20.60;95.40;;;;;;5136755;27;19946;-74
2021/06/07 10:28:51;;;;;;;;;;;20.60;95.10;;;;;;5137046;27;19911;-74
2021/06/07 10:31:17;;;;;;;;;;;20.60;95.30;;;;;;5135732;27;19911;-75
2021/06/07 10:33:54;;;;;;;;;;;20.70;94.90;;;;;;5136368;27;19903;-75
2021/06/07 10:36:22;;;;;;;;;;;20.90;94.80;;;;;;5136834;27;19911;-75
2021/06/07 10:38:51;;;;;;;;;;;21.40;94.30;;;;;;5135449;27;19903;-75
2021/06/07 10:41:24;;;;;;;;;;;21.00;93.90;;;;;;5136740;27;19966;-76
2021/06/07 10:43:51;;;;;;;;;;;21.10;93.70;;;;;;5136043;27;19910;-75
2021/06/07 10:46:19;;;;;;;;;;;21.00;92.70;;;;;;5135492;27;19915;-74
2021/06/07 10:48:49;;;;;;;;;;;21.10;93.40;;;;;;5135998;27;19915;-75
2021/06/07 10:51:14;;;;;;;;;;;21.10;93.40;;;;;;5136081;27;19903;-75
2021/06/07 10:53:40;;;;;;;;;;;21.20;92.80;;;;;;5134489;27;19999;-75
2021/06/07 10:56:08;;;;;;;;;;;21.10;92.30;;;;;;5136198;27;19907;-75
2021/06/07 10:58:33;;;;;;;;;;;21.20;92.30;;;;;;5136077;27;19964;-75
2021/06/07 11:00:59;;;;;;;;;;;21.30;92.70;;;;;;5135353;27;19903;-75
2021/06/07 11:03:27;;;;;;;;;;;21.40;92.60;;;;;;5136015;27;19903;-75
2021/06/07 11:05:54;;;;;;;;;;;21.50;92.00;;;;;;5135318;27;19915;-75
2021/06/07 11:08:20;;;;;;;;;;;21.60;91.40;;;;;;5135816;27;19908;-74
2021/06/07 11:10:47;;;;;;;;;;;21.50;91.40;;;;;;5135828;27;19952;-75
2021/06/07 11:13:17;;;;;;;;;;;21.60;91.10;;;;;;5135126;27;20002;-75
2021/06/07 11:15:53;;;;;;;;;;;21.50;91.20;;;;;;5135578;27;19903;-75
2021/06/07 11:18:23;;;;;;;;;;;21.50;91.60;;;;;;5134476;27;19983;-75
2021/06/07 11:20:50;;;;;;;;;;;21.40;91.00;;;;;;5134583;27;19903;-75
2021/06/07 11:23:16;;;;;;;;;;;21.40;91.00;;;;;;5136007;27;19911;-75
2021/06/07 11:25:49;;;;;;;;;;;21.40;90.80;;;;;;5135488;27;19903;-75
2021/06/07 11:28:35;;;;;;;;;;;21.40;91.00;;;;;;5134574;27;19911;-75
2021/06/07 11:31:02;;;;;;;;;;;21.50;91.10;;;;;;5134931;27;19903;-74
2021/06/07 11:33:28;;;;;;;;;;;21.60;90.90;;;;;;5135416;27;20270;-75
2021/06/07 11:35:53;;;;;;;;;;;21.70;91.50;;;;;;5134490;27;19990;-75
2021/06/07 11:38:28;;;;;;;;;;;21.80;90.20;;;;;;5135207;27;19903;-75
2021/06/07 11:40:54;;;;;;;;;;;21.80;90.20;;;;;;5135138;27;19903;-75
2021/06/07 11:43:52;;;;;;;;;;;21.80;89.50;;;;;;5134399;27;20406;-75
2021/06/07 11:46:29;;;;;;;;;;;21.70;89.30;;;;;;5134835;27;20375;-75
2021/06/07 11:49:08;;;;;;;;;;;21.80;89.90;;;;;;5133936;27;19916;-75
2021/06/07 11:51:34;;;;;;;;;;;21.90;89.20;;;;;;5134880;27;19914;-75
2021/06/07 11:54:00;;;;;;;;;;;22.00;89.20;;;;;;5134683;27;19903;-75
2021/06/07 11:56:25;;;;;;;;;;;22.10;88.80;;;;;;5134070;27;19963;-75
2021/06/07 11:58:51;;;;;;;;;;;22.10;88.60;;;;;;5134954;27;19904;-75
2021/06/07 12:01:20;;;;;;;;;;;22.20;87.80;;;;;;5137590;27;19954;-76
2021/06/07 12:03:45;;;;;;;;;;;22.30;88.10;;;;;;5138983;27;19994;-74
2021/06/07 12:06:11;;;;;;;;;;;22.40;88.30;;;;;;5134432;27;19961;-74
2021/06/07 12:08:37;;;;;;;;;;;22.50;88.30;;;;;;5134609;27;19915;-74
2021/06/07 12:11:04;;;;;;;;;;;22.60;87.30;;;;;;5134007;27;19903;-74
2021/06/07 12:13:34;;;;;;;;;;;22.70;86.30;;;;;;5136943;27;19949;-76
2021/06/07 12:16:02;;;;;;;;;;;22.60;86.90;;;;;;5134837;27;19911;-75
2021/06/07 12:18:32;;;;;;;;;;;22.70;86.70;;;;;;5140336;27;19903;-75
2021/06/07 12:21:17;;;;;;;;;;;22.60;85.70;;;;;;5134794;27;19903;-75
2021/06/07 12:23:48;;;;;;;;;;;22.70;86.50;;;;;;5133873;27;20383;-75
2021/06/07 12:29:21;;;;;;;;;;;22.80;85.50;;;;;;5134552;27;20036;-75
2021/06/07 12:32:06;;;;;;;;;;;23.00;85.70;;;;;;5133814;27;19946;-75
2021/06/07 12:34:32;;;;;;;;;;;23.20;86.20;;;;;;5133890;27;19903;-75
2021/06/07 12:36:57;;;;;;;;;;;23.20;85.00;;;;;;5134214;27;19967;-75
2021/06/07 12:39:23;;;;;;;;;;;23.40;84.20;;;;;;5133234;27;19914;-74
2021/06/07 12:41:48;;;;;;;;;;;23.40;82.90;;;;;;5133974;27;19945;-74
2021/06/07 12:44:20;;;;;;;;;;;23.40;82.80;;;;;;5134302;27;19903;-74
2021/06/07 12:46:48;;;;;;;;;;;23.40;83.10;;;;;;5134354;27;20316;-74
2021/06/07 12:49:23;;;;;;;;;;;23.40;80.90;;;;;;5134314;27;19916;-74
2021/06/07 12:51:59;;;;;;;;;;;23.40;82.20;;;;;;5133432;27;19915;-75
2021/06/07 12:54:27;;;;;;;;;;;23.30;82.30;;;;;;5134091;28;19910;-75
2021/06/07 12:56:52;;;;;;;;;;;23.40;81.00;;;;;;5134099;28;20010;-74
2021/06/07 12:59:18;;;;;;;;;;;23.50;81.80;;;;;;5133029;28;19911;-74
2021/06/07 13:01:46;;;;;;;;;;;23.50;81.30;;;;;;5133956;28;19910;-74
2021/06/07 13:04:13;;;;;;;;;;;23.60;79.30;;;;;;5133937;28;19904;-74
2021/06/07 13:06:52;;;;;;;;;;;23.60;78.40;;;;;;5132875;28;19905;-74
2021/06/07 13:09:17;;;;;;;;;;;23.50;80.10;;;;;;5133571;28;20273;-73
2021/06/07 13:11:44;;;;;;;;;;;23.50;78.90;;;;;;5134016;28;19911;-74
2021/06/07 13:14:16;;;;;;;;;;;23.50;78.30;;;;;;5133103;28;19903;-74
2021/06/07 13:16:41;;;;;;;;;;;23.50;79.00;;;;;;5136390;27;19911;-74
2021/06/07 13:19:07;;;;;;;;;;;23.60;77.60;;;;;;5137817;27;19903;-75
2021/06/07 13:21:49;;;;;;;;;;;23.70;76.70;;;;;;5137079;27;20300;-75
2021/06/07 13:24:16;;;;;;;;;;;23.70;76.50;;;;;;5137959;27;19911;-76
2021/06/07 13:26:44;;;;;;;;;;;23.90;76.20;;;;;;5137179;27;19910;-75
2021/06/07 13:29:12;;;;;;;;;;;24.00;75.00;;;;;;5137530;27;20259;-75
2021/06/07 13:31:56;;;;;;;;;;;24.10;75.10;;;;;;5137695;27;20351;-75
2021/06/07 13:34:29;;;;;;;;;;;24.10;75.00;;;;;;5136781;27;20331;-75
2021/06/07 13:37:01;;;;;;;;;;;24.00;73.70;;;;;;5137737;27;19948;-74
2021/06/07 13:39:27;;;;;;;;;;;24.00;74.40;;;;;;5137439;27;19961;-76
2021/06/07 13:41:53;;;;;;;;;;;24.10;73.80;;;;;;5136634;27;19904;-75
2021/06/07 13:44:19;;;;;;;;;;;24.30;71.80;;;;;;5137539;27;19956;-75
2021/06/07 13:46:44;;;;;;;;;;;24.10;72.20;;;;;;5137446;27;20313;-75
2021/06/07 13:49:16;;;;;;;;;;;24.10;71.80;;;;;;5136296;27;19915;-75
2021/06/07 13:51:42;;;;;;;;;;;24.20;72.50;;;;;;5137273;27;19907;-74
2021/06/07 13:54:11;;;;;;;;;;;24.40;73.00;;;;;;5137642;27;19963;-74
2021/06/07 13:56:38;;;;;;;;;;;24.20;72.30;;;;;;5136725;27;19947;-75
2021/06/07 13:59:04;;;;;;;;;;;24.10;72.10;;;;;;5137552;27;19969;-74
2021/06/07 14:01:34;;;;;;;;;;;24.10;71.50;;;;;;5136902;27;20282;-74
2021/06/07 14:04:00;;;;;;;;;;;24.10;71.60;;;;;;5136757;27;19904;-75
2021/06/07 14:06:26;;;;;;;;;;;24.30;71.40;;;;;;5137093;27;19904;-75
2021/06/07 14:08:53;;;;;;;;;;;24.30;70.90;;;;;;5139770;27;19919;-75
2021/06/07 14:11:26;;;;;;;;;;;24.40;69.70;;;;;;5140591;27;20236;-75
2021/06/07 14:13:56;;;;;;;;;;;24.50;69.50;;;;;;5137125;27;19903;-74
2021/06/07 14:16:22;;;;;;;;;;;24.60;69.70;;;;;;5136138;27;20260;-74
2021/06/07 14:18:48;;;;;;;;;;;24.80;69.60;;;;;;5137822;27;20006;-74